Time;durP1;ratioP1;P1;durP2;ratioP2;P2;SDS_P1;SDS_P2;PMS_P1;PMS_P2;Temp;Humidity;BMP_temperature;BMP_pressure;BME280_temperature;BME280_humidity;BME280_pressure;Samples;Min_cycle;Max_cycle;Signal;HPM_P1;HPM_P2
2022/11/30 00:01:20;;;;;;;23.63;8.90;;;3.60;99.90;;;;;;4737166;30;20055;-76
2022/11/30 00:03:51;;;;;;;19.02;7.55;;;3.60;99.90;;;;;;4735358;30;20051;-77
2022/11/30 00:06:21;;;;;;;23.25;8.73;;;3.70;99.90;;;;;;4749581;30;20080;-76
2022/11/30 00:08:58;;;;;;;22.45;8.70;;;3.90;99.90;;;;;;4747771;30;20048;-76
2022/11/30 00:11:27;;;;;;;20.65;8.75;;;4.60;99.90;;;;;;4729978;30;20157;-76
2022/11/30 00:13:55;;;;;;;24.45;9.25;;;3.70;99.90;;;;;;4719735;30;20056;-76
2022/11/30 00:16:22;;;;;;;22.45;9.13;;;3.80;99.90;;;;;;4745153;30;20080;-76
2022/11/30 00:18:50;;;;;;;22.13;9.20;;;3.60;99.90;;;;;;4732184;30;20056;-76
2022/11/30 00:21:18;;;;;;;22.02;8.93;;;3.60;99.90;;;;;;4747750;30;20784;-76
2022/11/30 00:23:47;;;;;;;22.70;8.60;;;3.50;99.90;;;;;;4746223;30;20102;-76
2022/11/30 00:26:17;;;;;;;21.33;8.45;;;3.70;99.90;;;;;;4735650;30;20044;-76
2022/11/30 00:28:46;;;;;;;21.75;7.97;;;3.60;99.90;;;;;;4748913;30;20048;-76
2022/11/30 00:31:16;;;;;;;18.55;7.95;;;2.50;99.90;;;;;;4732941;30;20061;-76
2022/11/30 00:33:44;;;;;;;19.27;8.02;;;4.80;99.90;;;;;;4734619;30;20670;-76
2022/11/30 00:36:16;;;;;;;21.80;8.57;;;3.80;99.90;;;;;;4747181;30;20052;-76
2022/11/30 00:38:44;;;;;;;23.30;8.52;;;3.60;99.90;;;;;;4749516;30;20641;-76
2022/11/30 00:41:12;;;;;;;21.27;7.55;;;3.60;99.90;;;;;;4728950;30;20401;-76
2022/11/30 00:43:40;;;;;;;21.77;7.68;;;3.60;99.90;;;;;;4717545;30;20076;-76
2022/11/30 00:46:08;;;;;;;22.63;7.32;;;3.70;99.90;;;;;;4721049;30;20082;-76
2022/11/30 00:48:36;;;;;;;22.60;8.23;;;3.60;99.90;;;;;;4735935;30;20143;-76
2022/11/30 00:51:05;;;;;;;20.05;7.30;;;4.00;99.90;;;;;;4736157;30;20059;-76
2022/11/30 00:53:32;;;;;;;19.67;7.63;;;3.50;99.90;;;;;;4736147;30;20044;-76
2022/11/30 00:56:00;;;;;;;20.35;7.65;;;3.60;99.90;;;;;;4752731;30;20055;-76
2022/11/30 00:58:27;;;;;;;18.90;8.85;;;4.00;99.90;;;;;;4751904;30;20050;-76
2022/11/30 01:00:54;;;;;;;18.52;7.18;;;3.60;99.90;;;;;;4736373;30;20373;-76
2022/11/30 01:03:22;;;;;;;13.50;6.30;;;4.00;99.90;;;;;;4736517;30;20580;-76
2022/11/30 01:05:49;;;;;;;17.90;6.72;;;3.60;99.90;;;;;;4745172;30;21348;-76
2022/11/30 01:08:17;;;;;;;15.82;6.38;;;3.60;99.90;;;;;;4747192;30;20092;-76
2022/11/30 01:10:46;;;;;;;17.88;6.50;;;3.60;99.90;;;;;;4750051;30;20057;-76
2022/11/30 01:13:13;;;;;;;15.35;6.20;;;3.60;99.90;;;;;;4746461;30;20612;-76
2022/11/30 01:15:43;;;;;;;14.38;6.55;;;3.60;99.90;;;;;;4731490;30;20066;-76
2022/11/30 01:18:11;;;;;;;15.70;6.60;;;2.60;99.90;;;;;;4749043;30;20059;-76
2022/11/30 01:20:42;;;;;;;15.13;6.70;;;3.50;99.90;;;;;;4745943;30;21292;-76
2022/11/30 01:23:10;;;;;;;21.73;7.85;;;3.60;99.90;;;;;;4734944;30;20056;-76
2022/11/30 01:25:38;;;;;;;23.77;9.05;;;4.20;99.90;;;;;;4749854;30;20063;-76
2022/11/30 01:28:05;;;;;;;25.25;8.55;;;3.60;99.90;;;;;;4750646;30;20066;-76
2022/11/30 01:30:33;;;;;;;29.10;11.00;;;3.60;99.90;;;;;;4751477;30;20052;-76
2022/11/30 01:33:06;;;;;;;26.30;10.68;;;4.70;99.90;;;;;;4747315;30;20135;-76
2022/11/30 01:35:34;;;;;;;25.58;10.05;;;3.50;99.90;;;;;;4737349;30;20588;-76
2022/11/30 01:38:01;;;;;;;26.42;10.43;;;3.90;99.90;;;;;;4752028;30;20052;-76
2022/11/30 01:40:29;;;;;;;23.65;9.95;;;3.60;99.90;;;;;;4752189;30;20431;-76
2022/11/30 01:42:57;;;;;;;26.65;10.55;;;3.40;99.90;;;;;;4751277;30;20539;-76
2022/11/30 01:45:26;;;;;;;25.38;10.05;;;3.50;99.90;;;;;;4747905;30;20070;-76
2022/11/30 01:47:56;;;;;;;26.40;11.70;;;3.50;99.90;;;;;;4752780;30;20520;-76
2022/11/30 01:50:31;;;;;;;28.48;11.77;;;3.60;99.90;;;;;;4734830;30;20052;-76
2022/11/30 01:53:00;;;;;;;28.63;11.65;;;2.20;99.90;;;;;;4736353;30;20048;-76
2022/11/30 01:55:32;;;;;;;26.50;10.70;;;3.50;99.90;;;;;;4733068;30;20052;-76
2022/11/30 01:58:06;;;;;;;20.92;9.23;;;3.40;99.90;;;;;;4736863;30;20525;-76
2022/11/30 02:00:34;;;;;;;31.02;11.93;;;3.10;99.90;;;;;;4734633;30;20049;-76
2022/11/30 02:03:16;;;;;;;32.33;12.18;;;3.80;99.90;;;;;;4737645;30;20049;-76
2022/11/30 02:05:46;;;;;;;27.27;11.18;;;3.30;99.90;;;;;;4745235;30;20596;-76
2022/11/30 02:08:13;;;;;;;28.92;11.85;;;3.40;99.90;;;;;;4747448;30;20060;-76
2022/11/30 02:10:46;;;;;;;23.95;10.48;;;3.40;99.90;;;;;;4733890;30;20047;-76
2022/11/30 02:13:28;;;;;;;27.00;11.15;;;4.00;99.90;;;;;;4739934;30;20054;-76
2022/11/30 02:16:23;;;;;;;23.33;10.05;;;3.50;99.90;;;;;;4748425;30;20076;-76
2022/11/30 02:19:36;;;;;;;23.90;9.98;;;3.40;99.90;;;;;;4735492;30;20507;-76
2022/11/30 02:22:38;;;;;;;27.55;10.23;;;3.40;99.90;;;;;;4734907;30;20044;-76
2022/11/30 02:25:43;;;;;;;29.30;11.30;;;3.30;99.90;;;;;;4750464;30;20294;-76
2022/11/30 02:28:35;;;;;;;24.23;10.45;;;3.40;99.90;;;;;;4748688;30;20063;-76
2022/11/30 02:31:07;;;;;;;24.05;10.00;;;3.50;99.90;;;;;;4745674;30;20056;-76
2022/11/30 02:33:39;;;;;;;25.52;9.93;;;3.60;99.90;;;;;;4751231;30;20048;-76
2022/11/30 02:36:09;;;;;;;26.10;10.18;;;3.60;99.90;;;;;;4720891;30;20143;-76
2022/11/30 02:38:40;;;;;;;29.52;11.02;;;3.20;99.90;;;;;;4734292;30;20058;-76
2022/11/30 02:41:07;;;;;;;26.33;11.00;;;3.10;99.90;;;;;;4752393;30;20052;-76
2022/11/30 02:43:35;;;;;;;27.15;12.00;;;3.40;99.90;;;;;;4722824;30;20056;-76
2022/11/30 02:46:22;;;;;;;31.30;11.48;;;3.40;99.90;;;;;;4746664;30;20143;-76
2022/11/30 02:48:58;;;;;;;30.48;11.32;;;3.30;99.90;;;;;;4735946;30;20048;-76
2022/11/30 02:51:28;;;;;;;36.28;12.95;;;3.30;99.90;;;;;;4747537;30;20056;-76
2022/11/30 02:53:56;;;;;;;33.90;12.80;;;3.30;99.90;;;;;;4733198;30;20122;-76
2022/11/30 02:56:24;;;;;;;29.15;11.45;;;3.30;99.90;;;;;;4749850;30;20079;-76
2022/11/30 02:58:52;;;;;;;30.10;11.02;;;3.30;99.90;;;;;;4751603;30;20068;-76
2022/11/30 03:01:20;;;;;;;29.83;11.63;;;3.40;99.90;;;;;;4746711;30;20052;-76
2022/11/30 03:03:48;;;;;;;28.25;11.60;;;2.80;99.90;;;;;;4750557;30;20049;-76
2022/11/30 03:06:18;;;;;;;27.52;11.00;;;3.30;99.90;;;;;;4734209;30;20124;-76
2022/11/30 03:08:49;;;;;;;27.55;10.32;;;3.40;99.90;;;;;;4747410;30;21837;-76
2022/11/30 03:11:16;;;;;;;26.52;10.75;;;3.40;99.90;;;;;;4748745;30;20532;-76
2022/11/30 03:13:43;;;;;;;30.35;11.77;;;3.40;99.90;;;;;;4731901;30;20139;-76
2022/11/30 03:16:12;;;;;;;25.50;10.80;;;3.20;99.90;;;;;;4730024;30;20052;-76
2022/11/30 03:18:40;;;;;;;26.92;10.55;;;2.00;99.90;;;;;;4733159;30;20145;-76
2022/11/30 03:21:09;;;;;;;26.48;10.73;;;3.60;99.90;;;;;;4732224;30;20048;-76
2022/11/30 03:23:40;;;;;;;21.85;10.18;;;3.40;99.90;;;;;;4732666;30;20586;-76
2022/11/30 03:26:08;;;;;;;28.25;11.60;;;3.50;99.90;;;;;;4731933;30;20098;-76
2022/11/30 03:28:36;;;;;;;26.80;11.10;;;3.40;99.90;;;;;;4746499;30;20398;-76
2022/11/30 03:31:04;;;;;;;28.15;11.18;;;3.70;99.90;;;;;;4732037;30;20044;-76
2022/11/30 03:33:31;;;;;;;27.08;11.05;;;3.40;99.90;;;;;;4733291;30;20452;-76
2022/11/30 03:36:05;;;;;;;27.75;11.75;;;3.40;99.90;;;;;;4718049;30;20393;-76
2022/11/30 03:38:33;;;;;;;28.80;10.82;;;3.40;99.90;;;;;;4744438;30;20040;-76
2022/11/30 03:41:03;;;;;;;24.02;11.40;;;2.10;99.90;;;;;;4748527;30;20110;-76
2022/11/30 03:43:31;;;;;;;27.98;11.65;;;3.40;99.90;;;;;;4747604;30;20066;-76
2022/11/30 03:45:59;;;;;;;31.00;12.93;;;2.70;99.90;;;;;;4733285;30;20044;-76
2022/11/30 03:48:27;;;;;;;28.60;11.73;;;3.40;99.90;;;;;;4748386;30;20051;-76
2022/11/30 03:50:54;;;;;;;28.40;10.70;;;3.40;99.90;;;;;;4749890;30;20064;-76
2022/11/30 03:53:24;;;;;;;29.73;10.77;;;3.40;99.90;;;;;;4735942;30;20078;-76
2022/11/30 03:55:54;;;;;;;27.48;11.07;;;2.70;99.90;;;;;;4733715;30;20086;-76
2022/11/30 03:58:22;;;;;;;28.73;12.23;;;3.40;99.90;;;;;;4746256;30;20048;-76
2022/11/30 04:01:00;;;;;;;33.40;12.75;;;1.90;99.90;;;;;;4734505;30;20048;-76
2022/11/30 04:03:29;;;;;;;26.92;10.85;;;3.90;99.90;;;;;;4747944;30;20056;-76
2022/11/30 04:05:57;;;;;;;30.25;11.88;;;3.40;99.90;;;;;;4732254;30;20044;-76
2022/11/30 04:08:25;;;;;;;26.60;11.27;;;3.60;99.90;;;;;;4732272;30;20161;-76
2022/11/30 04:10:54;;;;;;;26.38;10.50;;;2.20;99.90;;;;;;4749035;30;20056;-76
2022/11/30 04:13:22;;;;;;;26.85;10.90;;;3.40;99.90;;;;;;4730341;30;20405;-76
2022/11/30 04:15:51;;;;;;;25.70;9.95;;;3.40;99.90;;;;;;4731092;30;20048;-76
2022/11/30 04:18:24;;;;;;;27.80;11.60;;;3.80;99.90;;;;;;4733053;30;20048;-76
2022/11/30 04:20:54;;;;;;;25.02;10.68;;;2.70;99.90;;;;;;4721034;30;20308;-76
2022/11/30 04:23:23;;;;;;;24.90;10.07;;;3.40;99.90;;;;;;4734739;30;20056;-76
2022/11/30 04:25:51;;;;;;;24.55;10.20;;;3.40;99.90;;;;;;4732589;30;20060;-76
2022/11/30 04:28:22;;;;;;;20.88;9.18;;;3.70;99.90;;;;;;4749167;30;20048;-76
2022/11/30 04:30:49;;;;;;;23.23;10.20;;;3.30;99.90;;;;;;4747947;30;20059;-76
2022/11/30 04:33:19;;;;;;;24.80;10.57;;;3.40;99.90;;;;;;4732248;30;20102;-76
2022/11/30 04:35:57;;;;;;;27.70;12.25;;;2.00;99.90;;;;;;4743292;30;20631;-76
2022/11/30 04:38:25;;;;;;;26.35;10.65;;;3.20;99.90;;;;;;4733996;30;20121;-76
2022/11/30 04:40:53;;;;;;;31.23;11.43;;;3.60;99.90;;;;;;4746567;30;20164;-76
2022/11/30 04:43:22;;;;;;;32.90;12.30;;;3.40;99.90;;;;;;4747276;30;20067;-76
2022/11/30 04:45:52;;;;;;;26.83;10.40;;;3.40;99.90;;;;;;4730497;30;20048;-76
2022/11/30 04:48:22;;;;;;;;;;;3.30;99.90;;;;;;4748368;30;20052;-76
2022/11/30 04:50:49;;;;;;;29.95;10.25;;;3.40;99.90;;;;;;4718607;30;19933;-76
2022/11/30 04:53:17;;;;;;;34.05;13.65;;;3.40;99.90;;;;;;4745014;30;20052;-76
2022/11/30 04:55:44;;;;;;;32.25;11.82;;;3.30;99.90;;;;;;4728930;30;20102;-76
2022/11/30 04:58:12;;;;;;;33.22;11.73;;;3.40;99.90;;;;;;4745020;30;20055;-76
2022/11/30 05:00:39;;;;;;;34.97;12.13;;;3.20;99.90;;;;;;4733337;30;20044;-76
2022/11/30 05:03:07;;;;;;;29.70;11.98;;;3.40;99.90;;;;;;4750045;30;20048;-76
2022/11/30 05:05:34;;;;;;;31.05;11.40;;;1.80;99.90;;;;;;4732283;30;20124;-76
2022/11/30 05:08:02;;;;;;;32.10;12.75;;;3.50;99.90;;;;;;4731921;30;20513;-76
2022/11/30 05:10:32;;;;;;;31.45;12.48;;;3.50;99.90;;;;;;4734537;30;20075;-76
2022/11/30 05:12:59;;;;;;;28.30;11.30;;;2.90;99.90;;;;;;4717490;30;20052;-76
2022/11/30 05:15:27;;;;;;;30.50;11.85;;;2.90;99.90;;;;;;4735350;30;20089;-76
2022/11/30 05:17:58;;;;;;;26.10;10.75;;;4.60;99.90;;;;;;4734086;30;20052;-76
2022/11/30 05:20:29;;;;;;;33.92;13.27;;;4.70;99.90;;;;;;4735586;30;20078;-76
2022/11/30 05:22:57;;;;;;;39.70;16.13;;;4.00;99.90;;;;;;4733373;30;20056;-76
2022/11/30 05:25:24;;;;;;;38.70;15.25;;;3.20;99.90;;;;;;4732621;30;20056;-76
2022/11/30 05:27:52;;;;;;;38.50;15.80;;;3.40;99.90;;;;;;4719993;30;20457;-76
2022/11/30 05:30:20;;;;;;;35.50;15.30;;;3.50;99.90;;;;;;4732829;30;20102;-76
2022/11/30 05:32:47;;;;;;;34.83;16.13;;;3.40;99.90;;;;;;4739741;30;20062;-76
2022/11/30 05:35:14;;;;;;;37.85;15.10;;;3.40;99.90;;;;;;4733930;30;20044;-76
2022/11/30 05:37:42;;;;;;;34.80;16.05;;;3.40;99.90;;;;;;4736589;30;20048;-76
2022/11/30 05:40:10;;;;;;;32.00;13.93;;;3.20;99.90;;;;;;4735410;30;20078;-76
2022/11/30 05:42:37;;;;;;;36.90;14.88;;;3.20;99.90;;;;;;4722247;30;20056;-76
2022/11/30 05:45:05;;;;;;;32.70;13.48;;;3.20;99.90;;;;;;4735827;30;20055;-76
2022/11/30 05:47:32;;;;;;;34.95;14.80;;;3.10;99.90;;;;;;4735566;30;20942;-76
2022/11/30 05:50:00;;;;;;;36.35;14.77;;;1.80;99.90;;;;;;4734329;30;20126;-76
2022/11/30 05:52:27;;;;;;;29.05;12.90;;;3.40;99.90;;;;;;4735853;30;20156;-76
2022/11/30 05:54:55;;;;;;;30.20;12.90;;;3.80;99.90;;;;;;4720484;30;20056;-76
2022/11/30 05:57:22;;;;;;;28.55;12.05;;;3.30;99.90;;;;;;4740429;30;20048;-76
2022/11/30 05:59:50;;;;;;;33.13;12.95;;;2.80;99.90;;;;;;4753231;30;20048;-76
2022/11/30 06:02:17;;;;;;;30.33;12.48;;;2.70;99.90;;;;;;4747710;30;20106;-76
2022/11/30 06:04:52;;;;;;;29.95;12.43;;;3.40;99.90;;;;;;4721645;30;20390;-76
2022/11/30 06:07:20;;;;;;;32.95;13.27;;;3.40;99.90;;;;;;4733155;30;20676;-76
2022/11/30 06:09:53;;;;;;;37.75;13.40;;;3.40;99.90;;;;;;4733523;30;20144;-76
2022/11/30 06:12:21;;;;;;;35.85;15.32;;;2.20;99.90;;;;;;4749061;30;20080;-79
2022/11/30 06:14:49;;;;;;;31.73;13.07;;;3.30;99.90;;;;;;4750231;30;20098;-79
2022/11/30 06:17:17;;;;;;;33.10;13.55;;;3.30;99.90;;;;;;4749643;30;20055;-79
2022/11/30 06:19:44;;;;;;;31.90;13.68;;;3.70;99.90;;;;;;4734043;30;20052;-79
2022/11/30 06:22:12;;;;;;;29.95;12.13;;;3.40;99.90;;;;;;4731422;30;20121;-79
2022/11/30 06:24:39;;;;;;;31.83;13.18;;;3.20;99.90;;;;;;4731010;30;20102;-79
2022/11/30 06:27:06;;;;;;;34.10;13.23;;;4.70;99.90;;;;;;4736478;30;20087;-79
2022/11/30 06:29:34;;;;;;;43.10;16.52;;;2.30;99.90;;;;;;4751627;30;20051;-79
2022/11/30 06:32:01;;;;;;;43.33;16.98;;;3.40;99.90;;;;;;4747563;30;20048;-79
2022/11/30 06:34:32;;;;;;;43.10;15.68;;;3.40;99.90;;;;;;4735784;30;20519;-79
2022/11/30 06:36:59;;;;;;;40.00;15.77;;;3.50;99.90;;;;;;4734967;30;20040;-79
2022/11/30 06:39:27;;;;;;;43.78;15.23;;;3.50;99.90;;;;;;4721991;30;20044;-79
2022/11/30 06:42:14;;;;;;;39.80;15.88;;;3.40;99.90;;;;;;4736117;30;20489;-79
2022/11/30 06:44:41;;;;;;;37.67;16.63;;;3.50;99.90;;;;;;4739794;30;20052;-79
2022/11/30 06:47:09;;;;;;;46.30;17.35;;;2.90;99.90;;;;;;4734175;30;20420;-79
2022/11/30 06:49:37;;;;;;;47.35;17.17;;;3.00;99.90;;;;;;4738755;30;20060;-79
2022/11/30 06:52:05;;;;;;;39.95;16.95;;;3.60;99.90;;;;;;4747023;30;20052;-79
2022/11/30 06:54:32;;;;;;;42.10;16.73;;;3.60;99.90;;;;;;4719293;30;20125;-79
2022/11/30 06:57:00;;;;;;;47.60;17.17;;;3.60;99.90;;;;;;4731989;30;20052;-79
2022/11/30 06:59:28;;;;;;;41.90;17.10;;;3.60;99.90;;;;;;4751264;30;20140;-79
2022/11/30 09:37:13;;;;;;;8.02;2.80;;;5.60;93.80;;;;;;4938985;24;20067;31
2022/11/30 09:39:45;;;;;;;6.32;2.67;;;6.40;92.70;;;;;;4927426;24;20056;-78
2022/11/30 09:49:40;;;;;;;7.28;2.55;;;5.70;91.70;;;;;;5361089;24;20068;31
2022/11/30 10:00:07;;;;;;;5.82;2.58;;;5.70;92.00;;;;;;5018235;24;20053;-79
2022/11/30 10:17:10;;;;;;;8.52;3.35;;;5.80;91.90;;;;;;5174647;24;20085;-78
2022/11/30 10:19:58;;;;;;;6.93;2.92;;;5.80;91.70;;;;;;4791659;29;20047;-78
2022/11/30 10:22:51;;;;;;;6.28;2.08;;;5.90;90.80;;;;;;4913449;24;20057;-79
2022/11/30 10:26:13;;;;;;;7.68;2.35;;;5.70;90.70;;;;;;4772013;30;20043;-79
2022/11/30 10:52:15;;;;;;;6.50;3.22;;;5.80;90.90;;;;;;5760615;24;20102;-79
2022/11/30 10:54:44;;;;;;;5.55;1.67;;;6.10;91.30;;;;;;4769866;30;20055;-79
2022/11/30 10:57:46;;;;;;;7.78;3.10;;;6.00;90.60;;;;;;4784775;29;20043;-79
2022/11/30 11:00:18;;;;;;;8.07;3.00;;;6.00;91.00;;;;;;4831508;24;20065;-79
2022/11/30 11:02:54;;;;;;;6.68;2.65;;;6.00;91.10;;;;;;4945251;24;20063;-79
2022/11/30 11:05:41;;;;;;;7.60;3.63;;;5.90;91.40;;;;;;4801284;29;20062;-79
2022/11/30 11:16:01;;;;;;;8.35;4.07;;;6.10;91.80;;;;;;5033269;24;20030;31
2022/11/30 11:18:36;;;;;;;8.50;3.20;;;6.10;92.20;;;;;;5070379;24;20646;-79
2022/11/30 11:28:24;;;;;;;7.60;3.20;;;6.10;92.30;;;;;;5309363;24;20030;31
2022/11/30 11:30:58;;;;;;;7.63;2.85;;;6.10;92.40;;;;;;4756639;30;20112;-77
2022/11/30 11:34:37;;;;;;;6.57;2.92;;;7.40;92.60;;;;;;4861891;24;20039;31
2022/11/30 11:44:51;;;;;;;9.40;2.80;;;6.20;92.70;;;;;;5026362;24;20488;-79
2022/11/30 11:51:07;;;;;;;6.18;2.72;;;6.20;93.10;;;;;;5720148;24;20034;-78
2022/11/30 11:53:54;;;;;;;10.93;4.00;;;6.10;93.10;;;;;;5116220;24;20030;31
2022/11/30 12:03:23;;;;;;;8.57;3.65;;;6.10;93.50;;;;;;5226254;24;20026;31
2022/11/30 12:16:41;;;;;;;11.60;5.45;;;6.20;94.00;;;;;;5813588;24;20033;31
2022/11/30 12:23:30;;;;;;;22.10;10.03;;;6.10;94.60;;;;;;5346345;24;20108;31
2022/11/30 12:26:59;;;;;;;23.75;7.55;;;6.20;94.50;;;;;;4928172;24;20050;31
2022/11/30 12:37:32;;;;;;;52.78;13.80;;;6.20;94.50;;;;;;5188266;24;20031;-79
2022/11/30 15:40:33;;;;;;;29.00;14.25;;;5.30;96.80;;;;;;5776390;24;20156;31
2022/11/30 15:43:01;;;;;;;37.80;17.27;;;5.30;97.10;;;;;;4742264;30;20056;-77
2022/11/30 15:45:37;;;;;;;52.33;21.90;;;5.30;97.00;;;;;;4755178;30;20078;-76
2022/11/30 15:48:38;;;;;;;50.88;20.42;;;4.00;97.00;;;;;;4753873;30;20079;-76
2022/11/30 15:51:15;;;;;;;54.75;22.85;;;5.00;97.60;;;;;;4768242;30;20068;-76
2022/11/30 15:53:50;;;;;;;67.07;28.08;;;5.20;97.80;;;;;;4766320;30;20048;-76
2022/11/30 15:56:23;;;;;;;46.35;22.02;;;5.20;98.30;;;;;;4764918;30;20051;-76
2022/11/30 15:59:13;;;;;;;44.78;19.55;;;5.10;98.00;;;;;;4768208;30;20048;-76
2022/11/30 16:02:13;;;;;;;41.90;18.95;;;5.10;98.00;;;;;;4764179;30;20516;-76
2022/11/30 16:04:56;;;;;;;41.70;19.38;;;5.10;98.20;;;;;;4745597;30;20091;-76
2022/11/30 16:07:26;;;;;;;52.70;24.35;;;5.10;98.50;;;;;;4757762;30;20048;-76
2022/11/30 16:10:05;;;;;;;57.92;26.45;;;5.70;98.40;;;;;;4755243;30;20085;-76
2022/11/30 16:12:33;;;;;;;63.08;30.83;;;5.00;98.60;;;;;;4753364;30;20087;-76
2022/11/30 16:15:00;;;;;;;60.53;27.73;;;5.00;99.00;;;;;;4752076;30;20538;-76
2022/11/30 16:17:29;;;;;;;81.30;32.85;;;5.00;98.70;;;;;;4766931;30;20131;-76
2022/11/30 16:19:56;;;;;;;77.97;32.08;;;5.00;98.70;;;;;;4763488;30;20059;-76
2022/11/30 16:22:23;;;;;;;65.50;27.52;;;4.10;98.20;;;;;;4743322;30;20052;-76
2022/11/30 16:24:50;;;;;;;50.50;22.10;;;4.70;98.40;;;;;;4747687;30;20059;-76
2022/11/30 16:27:21;;;;;;;44.53;19.48;;;5.00;97.70;;;;;;4732985;30;20060;-76
2022/11/30 16:29:48;;;;;;;42.00;19.60;;;4.90;97.60;;;;;;4748399;30;20052;-76
2022/11/30 16:32:19;;;;;;;35.88;15.85;;;5.00;97.30;;;;;;4750362;30;20056;-76
2022/11/30 16:34:47;;;;;;;33.38;16.67;;;5.00;96.80;;;;;;4734553;30;20044;-76
2022/11/30 16:37:14;;;;;;;39.58;17.08;;;5.00;96.70;;;;;;4747579;30;20090;-76
2022/11/30 16:39:42;;;;;;;37.58;16.40;;;5.10;96.70;;;;;;4730422;30;20048;-76
2022/11/30 16:42:11;;;;;;;38.60;18.45;;;5.00;96.70;;;;;;4733139;30;21292;-76
2022/11/30 16:44:39;;;;;;;47.88;24.05;;;4.90;96.50;;;;;;4738210;30;20491;-76
2022/11/30 16:47:06;;;;;;;39.47;21.45;;;4.90;96.70;;;;;;4746492;30;20143;-76
2022/11/30 16:49:34;;;;;;;35.75;17.45;;;5.80;97.10;;;;;;4730957;30;20056;-76
2022/11/30 16:52:02;;;;;;;37.55;16.85;;;5.10;97.20;;;;;;4731116;30;20084;-76
2022/11/30 16:54:29;;;;;;;38.83;16.27;;;4.90;97.00;;;;;;4746640;30;20509;-76
2022/11/30 16:56:57;;;;;;;45.72;18.77;;;4.90;97.10;;;;;;4727394;30;20052;-76
2022/11/30 16:59:25;;;;;;;48.60;20.23;;;4.90;97.40;;;;;;4736468;30;20528;-76
2022/11/30 17:01:52;;;;;;;68.85;27.17;;;4.80;97.40;;;;;;4745630;30;20053;-76
2022/11/30 17:04:24;;;;;;;85.43;36.50;;;4.80;97.50;;;;;;4731037;30;20056;-76
2022/11/30 17:06:52;;;;;;;61.67;27.33;;;4.80;97.70;;;;;;4727980;30;20068;-76
2022/11/30 17:09:29;;;;;;;47.22;21.48;;;4.80;98.00;;;;;;4711272;30;20531;-76
2022/11/30 17:11:56;;;;;;;47.42;21.25;;;4.80;97.90;;;;;;4749463;30;20067;-76
2022/11/30 17:14:23;;;;;;;40.60;18.88;;;4.90;97.80;;;;;;4745702;30;20052;-76
2022/11/30 17:16:51;;;;;;;33.83;16.48;;;4.80;97.80;;;;;;4734450;30;20056;-76
2022/11/30 17:19:19;;;;;;;39.63;18.02;;;4.90;97.90;;;;;;4719059;30;20064;-76
2022/11/30 17:21:49;;;;;;;35.53;16.48;;;4.80;97.80;;;;;;4728717;30;20068;-76
2022/11/30 17:24:16;;;;;;;37.15;16.42;;;5.80;98.30;;;;;;4731605;30;20070;-76
2022/11/30 17:26:44;;;;;;;36.45;15.82;;;4.80;98.10;;;;;;4744124;30;20057;-76
2022/11/30 17:29:11;;;;;;;28.10;14.45;;;4.70;98.20;;;;;;4748428;30;20063;-76
2022/11/30 17:31:39;;;;;;;29.50;14.32;;;4.80;98.40;;;;;;4752272;30;20064;-76
2022/11/30 17:34:07;;;;;;;35.05;15.55;;;5.00;98.70;;;;;;4737908;30;20068;-76
2022/11/30 17:36:34;;;;;;;32.90;15.50;;;5.40;98.90;;;;;;4748611;30;20043;-76
2022/11/30 17:39:07;;;;;;;34.47;15.82;;;4.00;98.80;;;;;;4749423;30;20071;-76
2022/11/30 17:41:34;;;;;;;37.78;16.45;;;4.70;99.00;;;;;;4748867;30;20044;-76
2022/11/30 17:44:02;;;;;;;30.25;15.35;;;5.90;99.70;;;;;;4732937;30;20919;-76
2022/11/30 17:46:30;;;;;;;34.17;16.00;;;4.70;99.50;;;;;;4729416;30;20226;-76
2022/11/30 17:48:57;;;;;;;39.45;17.95;;;4.60;99.80;;;;;;4747675;30;20059;-76
2022/11/30 17:51:25;;;;;;;45.30;22.25;;;4.60;99.90;;;;;;4733374;30;20065;-76
2022/11/30 17:53:53;;;;;;;59.10;27.15;;;4.40;99.90;;;;;;4745353;30;20059;-76
2022/11/30 17:56:22;;;;;;;73.13;31.15;;;4.30;99.90;;;;;;4746496;30;20052;-76
2022/11/30 17:58:49;;;;;;;64.07;30.00;;;4.60;99.90;;;;;;4734560;30;20590;-76
2022/11/30 18:01:18;;;;;;;52.35;24.02;;;4.60;99.90;;;;;;4734975;30;20102;-76
2022/11/30 18:03:50;;;;;;;41.67;21.10;;;4.50;99.90;;;;;;4728900;30;20062;-76
2022/11/30 18:06:19;;;;;;;50.40;20.83;;;4.60;99.90;;;;;;4747026;30;20079;-76
2022/11/30 18:08:46;;;;;;;43.05;20.13;;;4.60;99.90;;;;;;4746879;30;20159;-76
2022/11/30 18:11:18;;;;;;;51.65;23.42;;;4.50;99.90;;;;;;4729569;30;20140;-76
2022/11/30 18:13:48;;;;;;;57.35;24.58;;;4.60;99.90;;;;;;4746978;30;20055;-76
2022/11/30 18:16:27;;;;;;;56.90;24.65;;;4.50;99.90;;;;;;4734121;30;21001;-76
2022/11/30 18:18:57;;;;;;;58.05;24.67;;;4.60;99.90;;;;;;4733975;30;20059;-76
2022/11/30 18:21:28;;;;;;;50.92;22.33;;;4.50;99.90;;;;;;4736744;30;20459;-76
2022/11/30 18:23:57;;;;;;;57.28;23.30;;;4.60;99.90;;;;;;4747928;30;20060;-76
2022/11/30 18:26:26;;;;;;;55.95;24.27;;;4.60;99.90;;;;;;4749541;30;20537;-76
2022/11/30 18:28:56;;;;;;;57.78;24.17;;;4.50;99.90;;;;;;4719024;30;20056;-77
2022/11/30 18:31:25;;;;;;;57.85;24.50;;;4.10;99.90;;;;;;4748142;30;20055;-76
2022/11/30 18:33:54;;;;;;;56.63;23.02;;;4.50;99.90;;;;;;4735472;30;20496;-76
2022/11/30 18:36:23;;;;;;;66.05;24.08;;;4.60;99.90;;;;;;4750471;30;20087;-76
2022/11/30 18:38:53;;;;;;;74.47;28.73;;;4.50;99.90;;;;;;4751097;30;20048;-76
2022/11/30 18:41:21;;;;;;;70.53;27.20;;;4.50;99.90;;;;;;4734366;30;20052;-76
2022/11/30 18:43:49;;;;;;;63.17;25.63;;;4.50;99.90;;;;;;4728685;30;20049;-76
2022/11/30 18:46:16;;;;;;;66.78;24.95;;;4.50;99.90;;;;;;4747799;30;20056;-76
2022/11/30 18:48:49;;;;;;;54.30;22.60;;;5.00;99.90;;;;;;4733069;30;20052;-76
2022/11/30 18:51:21;;;;;;;61.17;24.75;;;4.50;99.90;;;;;;4742571;30;20061;-76
2022/11/30 18:53:56;;;;;;;62.65;25.60;;;4.50;99.90;;;;;;4750699;30;20135;-76
2022/11/30 18:56:29;;;;;;;57.33;24.90;;;4.50;99.90;;;;;;4732073;30;20052;-76
2022/11/30 18:59:13;;;;;;;73.47;27.20;;;4.30;99.90;;;;;;4754118;30;20101;-76
2022/11/30 19:01:40;;;;;;;70.53;27.45;;;5.40;99.90;;;;;;4717651;30;20045;-76
2022/11/30 19:04:10;;;;;;;67.72;26.77;;;4.60;99.90;;;;;;4729795;30;20048;-79
2022/11/30 19:06:40;;;;;;;59.63;23.45;;;4.40;99.90;;;;;;4735977;30;20048;-79
2022/11/30 19:09:13;;;;;;;57.72;22.50;;;5.00;99.90;;;;;;4720724;30;20052;-79
2022/11/30 19:11:42;;;;;;;41.42;18.63;;;4.50;99.90;;;;;;4747175;30;20497;-79
2022/11/30 19:14:15;;;;;;;41.33;18.60;;;4.50;99.90;;;;;;4745818;30;20044;-79
2022/11/30 19:16:46;;;;;;;43.67;21.48;;;4.50;99.90;;;;;;4726608;30;20060;-79
2022/11/30 19:19:14;;;;;;;46.13;20.63;;;3.80;99.90;;;;;;4747184;30;20048;-79
2022/11/30 19:21:46;;;;;;;44.05;19.02;;;4.90;99.90;;;;;;4750477;30;20052;-79
2022/11/30 19:24:15;;;;;;;55.78;21.90;;;4.50;99.90;;;;;;4750125;30;20068;-78
2022/11/30 19:26:43;;;;;;;56.45;21.75;;;4.10;99.90;;;;;;4746285;30;20131;-79
2022/11/30 19:29:11;;;;;;;53.95;19.80;;;4.50;99.90;;;;;;4745926;30;20139;-79
2022/11/30 19:31:39;;;;;;;50.15;20.08;;;4.50;99.90;;;;;;4732112;30;20044;-79
2022/11/30 19:34:08;;;;;;;48.25;19.70;;;4.50;99.90;;;;;;4731684;30;20056;-79
2022/11/30 19:36:40;;;;;;;41.35;17.42;;;5.70;99.90;;;;;;4729377;30;20157;-79
2022/11/30 19:39:09;;;;;;;43.72;17.35;;;4.50;99.90;;;;;;4730435;30;20060;-79
2022/11/30 19:41:38;;;;;;;42.30;17.17;;;4.50;99.90;;;;;;4720700;30;20052;-79
2022/11/30 19:44:12;;;;;;;58.28;25.42;;;4.50;99.90;;;;;;4743667;30;20077;-79
2022/11/30 19:46:41;;;;;;;64.85;26.02;;;4.40;99.90;;;;;;4734997;30;20044;-79
2022/11/30 19:49:10;;;;;;;56.88;24.13;;;4.50;99.90;;;;;;4733071;30;20044;-79
2022/11/30 19:51:37;;;;;;;51.03;21.65;;;4.40;99.90;;;;;;4747987;30;20059;-79
2022/11/30 19:54:05;;;;;;;46.05;20.52;;;4.50;99.90;;;;;;4747181;30;20106;-76
2022/11/30 19:56:37;;;;;;;62.83;28.83;;;4.50;99.90;;;;;;4720152;30;20074;-76
2022/11/30 19:59:05;;;;;;;33.10;16.77;;;4.50;99.90;;;;;;4745203;30;20123;-76
2022/11/30 20:01:34;;;;;;;35.38;14.98;;;5.10;99.90;;;;;;4719774;30;23353;-76
2022/11/30 20:04:05;;;;;;;32.13;13.43;;;4.50;99.90;;;;;;4745844;30;20523;-76
2022/11/30 20:06:36;;;;;;;53.17;21.17;;;4.50;99.90;;;;;;4719485;30;20513;-76
2022/11/30 20:09:06;;;;;;;47.45;19.35;;;4.40;99.90;;;;;;4720453;30;20053;-76
2022/11/30 20:11:34;;;;;;;65.68;26.65;;;4.50;99.90;;;;;;4748262;30;20072;-76
2022/11/30 20:14:02;;;;;;;44.28;18.27;;;4.50;99.90;;;;;;4733009;30;20055;-77
2022/11/30 20:16:30;;;;;;;41.00;16.60;;;4.60;99.90;;;;;;4747941;30;20183;-76
2022/11/30 20:19:00;;;;;;;34.83;14.50;;;5.40;99.90;;;;;;4746291;30;20108;-76
2022/11/30 20:21:31;;;;;;;35.95;16.40;;;3.40;99.90;;;;;;4749423;30;20509;-76
2022/11/30 20:24:00;;;;;;;51.40;22.20;;;4.50;99.90;;;;;;4743027;30;20102;-76
2022/11/30 20:26:31;;;;;;;37.47;16.58;;;4.50;99.90;;;;;;4750466;30;20048;-76